createdAt,value
2024-01-21T00:00:18.286Z,53.00
2024-01-21T00:02:46.805Z,52.60
2024-01-21T00:05:16.792Z,51.80
2024-01-21T00:07:45.354Z,51.20
2024-01-21T00:10:14.149Z,51.90
2024-01-21T00:12:42.577Z,53.10
2024-01-21T00:15:12.156Z,54.90
2024-01-21T00:17:40.606Z,54.20
2024-01-21T00:20:09.879Z,54.90
2024-01-21T00:22:41.411Z,55.40
2024-01-21T00:25:11.247Z,54.80
2024-01-21T00:27:40.235Z,56.40
2024-01-21T00:30:09.463Z,57.60
2024-01-21T00:32:37.957Z,57.60
2024-01-21T00:35:07.318Z,57.70
2024-01-21T00:37:35.694Z,56.80
2024-01-21T00:40:06.353Z,56.90
2024-01-21T00:42:34.733Z,55.80
2024-01-21T00:45:03.252Z,54.70
2024-01-21T00:47:31.913Z,54.20
2024-01-21T00:50:00.928Z,53.90
2024-01-21T00:52:29.653Z,55.10
2024-01-21T00:54:58.026Z,55.60
2024-01-21T00:57:28.177Z,53.70
2024-01-21T00:59:56.537Z,52.50
2024-01-21T01:02:24.855Z,52.50
2024-01-21T01:04:53.401Z,52.30
2024-01-21T01:07:21.717Z,52.90
2024-01-21T01:09:50.145Z,54.10
2024-01-21T01:12:18.546Z,54.20
2024-01-21T01:14:48.285Z,53.60
2024-01-21T01:17:16.786Z,52.70
2024-01-21T01:19:45.706Z,53.30
2024-01-21T01:22:14.549Z,52.10
2024-01-21T01:24:43.078Z,53.00
2024-01-21T01:27:11.770Z,52.50
2024-01-21T01:29:40.426Z,52.60
2024-01-21T01:32:10.356Z,53.30
2024-01-21T01:34:40.540Z,52.60
2024-01-21T01:37:10.327Z,51.80
2024-01-21T01:39:38.706Z,51.20
2024-01-21T01:42:07.429Z,50.90
2024-01-21T01:44:35.814Z,51.40
2024-01-21T01:47:04.340Z,50.90
2024-01-21T01:49:35.305Z,50.80
2024-01-21T01:52:03.839Z,50.00
2024-01-21T01:54:32.593Z,49.40
2024-01-21T01:57:01.693Z,49.60
2024-01-21T01:59:31.961Z,49.10
2024-01-21T02:02:01.009Z,48.00
2024-01-21T02:04:29.634Z,47.80
2024-01-21T02:06:59.560Z,48.90
2024-01-21T02:09:28.062Z,50.20
2024-01-21T02:11:56.468Z,50.50
2024-01-21T02:14:24.793Z,50.20
2024-01-21T02:16:53.281Z,50.00
2024-01-21T02:19:27.814Z,49.70
2024-01-21T02:21:58.363Z,49.60
2024-01-21T02:24:32.225Z,50.30
2024-01-21T02:27:01.023Z,49.00
2024-01-21T02:29:29.390Z,48.00
2024-01-21T02:31:59.741Z,48.60
2024-01-21T02:34:28.267Z,49.50
2024-01-21T02:36:56.665Z,49.70
2024-01-21T02:39:25.600Z,49.30
2024-01-21T02:41:55.449Z,48.10
2024-01-21T02:44:23.758Z,49.00
2024-01-21T02:46:52.155Z,49.40
2024-01-21T02:49:22.512Z,48.50
2024-01-21T02:51:50.993Z,47.40
2024-01-21T02:54:19.508Z,46.60
2024-01-21T02:56:47.905Z,47.40
2024-01-21T02:59:17.740Z,47.50
2024-01-21T03:01:46.232Z,48.00
2024-01-21T03:04:15.382Z,48.70
2024-01-21T03:06:45.631Z,49.70
2024-01-21T03:09:14.125Z,49.70
2024-01-21T03:11:42.549Z,50.10
2024-01-21T03:16:43.527Z,50.40
2024-01-21T03:19:11.992Z,50.60
2024-01-21T03:21:40.527Z,51.00
2024-01-21T03:24:08.839Z,50.70
2024-01-21T03:26:37.245Z,51.10
2024-01-21T03:29:05.606Z,50.30
2024-01-21T03:31:33.927Z,52.00
2024-01-21T03:34:05.337Z,51.80
2024-01-21T03:36:33.977Z,52.00
2024-01-21T03:39:02.367Z,52.00
2024-01-21T03:41:30.668Z,51.70
2024-01-21T03:43:59.055Z,52.20
2024-01-21T03:46:27.518Z,50.20
2024-01-21T03:48:55.971Z,49.40
2024-01-21T03:51:25.838Z,49.20
2024-01-21T03:53:54.351Z,50.90
2024-01-21T03:56:22.752Z,51.30
2024-01-21T03:58:51.041Z,51.80
2024-01-21T04:01:19.511Z,53.10
2024-01-21T04:03:48.100Z,53.50
2024-01-21T04:06:16.729Z,54.60
2024-01-21T04:08:46.448Z,56.10
2024-01-21T04:11:14.837Z,56.30
2024-01-21T04:13:43.291Z,56.30
2024-01-21T04:16:11.664Z,57.20
2024-01-21T04:18:40.446Z,57.30
2024-01-21T04:21:08.873Z,57.20
2024-01-21T04:23:37.655Z,57.80
2024-01-21T04:26:07.488Z,57.60
2024-01-21T04:28:35.759Z,59.10
2024-01-21T04:31:04.170Z,58.80
2024-01-21T04:33:32.705Z,58.70
2024-01-21T04:36:01.108Z,58.10
2024-01-21T04:38:29.506Z,58.10
2024-01-21T04:40:57.821Z,57.80
2024-01-21T04:43:27.554Z,57.70
2024-01-21T04:45:56.772Z,58.30
2024-01-21T04:48:25.360Z,58.10
2024-01-21T04:50:53.751Z,57.40
2024-01-21T04:53:22.188Z,58.00
2024-01-21T04:55:50.565Z,57.50
2024-01-21T04:58:18.913Z,58.40
2024-01-21T05:00:48.892Z,59.00
2024-01-21T05:03:17.321Z,58.30
2024-01-21T05:05:45.869Z,59.10
2024-01-21T05:08:14.160Z,58.70
2024-01-21T05:10:42.502Z,58.30
2024-01-21T05:13:10.861Z,57.70
2024-01-21T05:15:39.185Z,57.30
2024-01-21T05:18:09.119Z,59.00
2024-01-21T05:20:37.551Z,58.10
2024-01-21T05:23:06.148Z,58.80
2024-01-21T05:25:34.417Z,58.70
2024-01-21T05:28:02.762Z,58.10
2024-01-21T05:30:31.356Z,58.50
2024-01-21T05:32:59.853Z,58.70
2024-01-21T05:35:29.699Z,58.40
2024-01-21T05:37:58.116Z,58.70
2024-01-21T05:40:27.108Z,59.30
2024-01-21T05:42:55.587Z,59.20
2024-01-21T05:45:24.092Z,59.30
2024-01-21T05:47:52.493Z,59.40
2024-01-21T05:50:21.007Z,59.80
2024-01-21T05:52:50.771Z,59.80
2024-01-21T05:55:19.239Z,59.10
2024-01-21T05:57:48.075Z,59.50
2024-01-21T06:00:17.378Z,59.20
2024-01-21T06:02:45.965Z,58.90
2024-01-21T06:05:14.373Z,59.40
2024-01-21T06:07:42.732Z,59.50
2024-01-21T06:10:13.478Z,59.90
2024-01-21T06:12:41.865Z,60.30
2024-01-21T06:15:12.704Z,59.80
2024-01-21T06:17:41.265Z,59.60
2024-01-21T06:20:11.466Z,58.90
2024-01-21T06:22:39.967Z,59.40
2024-01-21T06:25:08.941Z,59.80
2024-01-21T06:27:38.688Z,59.40
2024-01-21T06:30:14.179Z,60.10
2024-01-21T06:32:49.876Z,59.80
2024-01-21T06:35:28.375Z,59.70
2024-01-21T06:37:56.870Z,60.70
2024-01-21T06:40:25.605Z,60.60
2024-01-21T06:42:55.396Z,61.50
2024-01-21T06:45:24.545Z,61.70
2024-01-21T06:47:54.982Z,60.50
2024-01-21T06:50:25.737Z,60.60
2024-01-21T06:52:54.360Z,60.90
2024-01-21T06:55:22.881Z,60.40
2024-01-21T06:57:51.512Z,59.90
2024-01-21T07:00:22.570Z,60.30
2024-01-21T07:02:51.112Z,60.00
2024-01-21T07:05:19.727Z,60.60
2024-01-21T07:07:50.341Z,59.60
2024-01-21T07:10:19.371Z,61.10
2024-01-21T07:12:48.532Z,60.10
2024-01-21T07:15:17.153Z,59.70
2024-01-21T07:17:47.887Z,59.30
2024-01-21T07:20:16.383Z,59.20
2024-01-21T07:22:44.658Z,59.50
2024-01-21T07:25:16.062Z,59.90
2024-01-21T07:27:45.188Z,60.50
2024-01-21T07:30:14.735Z,60.40
2024-01-21T07:32:43.866Z,60.80
2024-01-21T07:35:14.523Z,59.80
2024-01-21T07:37:46.583Z,60.30
2024-01-21T07:40:15.773Z,60.40
2024-01-21T07:42:44.120Z,60.80
2024-01-21T07:45:13.216Z,61.80
2024-01-21T07:47:41.756Z,61.90
2024-01-21T07:50:10.952Z,61.00
2024-01-21T07:52:41.404Z,62.00
2024-01-21T07:55:13.289Z,62.20
2024-01-21T07:57:42.086Z,61.70
2024-01-21T08:00:11.769Z,62.60
2024-01-21T08:02:40.099Z,62.70
2024-01-21T08:05:10.140Z,61.70
2024-01-21T08:07:38.598Z,61.70
2024-01-21T08:10:10.320Z,60.80
2024-01-21T08:12:41.037Z,61.60
2024-01-21T08:15:12.343Z,61.70
2024-01-21T08:17:40.993Z,61.00
2024-01-21T08:20:10.811Z,61.70
2024-01-21T08:22:39.169Z,62.60
2024-01-21T08:25:09.722Z,62.70
2024-01-21T08:27:38.216Z,61.20
2024-01-21T08:30:07.727Z,61.20
2024-01-21T08:32:36.930Z,60.00
2024-01-21T08:35:06.273Z,60.10
2024-01-21T08:37:34.751Z,61.60
2024-01-21T08:40:03.223Z,62.10
2024-01-21T08:42:32.973Z,61.70
2024-01-21T08:45:01.317Z,61.50
2024-01-21T08:47:29.841Z,61.00
2024-01-21T08:49:58.249Z,60.20
2024-01-21T08:52:26.594Z,59.80
2024-01-21T08:54:55.177Z,59.90
2024-01-21T08:57:23.676Z,60.90
2024-01-21T08:59:53.590Z,61.00
2024-01-21T09:02:21.859Z,60.80
2024-01-21T09:04:50.237Z,60.10
2024-01-21T09:07:18.705Z,60.10
2024-01-21T09:09:47.420Z,58.80
2024-01-21T09:12:16.952Z,59.60
2024-01-21T09:14:45.423Z,59.90
2024-01-21T09:17:15.171Z,59.40
2024-01-21T09:19:43.547Z,59.90
2024-01-21T09:22:14.271Z,58.90
2024-01-21T09:24:42.929Z,59.40
2024-01-21T09:27:11.240Z,59.90
2024-01-21T09:29:39.680Z,59.10
2024-01-21T09:32:09.658Z,58.50
2024-01-21T09:34:41.028Z,57.70
2024-01-21T09:37:09.564Z,57.90
2024-01-21T09:39:38.760Z,57.30
2024-01-21T09:42:08.881Z,58.00
2024-01-21T09:44:37.287Z,57.40
2024-01-21T09:47:06.211Z,56.20
2024-01-21T09:49:35.126Z,55.70
2024-01-21T09:52:06.634Z,55.50
2024-01-21T09:54:35.195Z,54.60
2024-01-21T09:57:04.304Z,55.30
2024-01-21T09:59:34.056Z,54.60
2024-01-21T10:02:02.386Z,55.40
2024-01-21T10:04:30.942Z,55.70
2024-01-21T10:06:59.640Z,53.80
2024-01-21T10:09:31.692Z,53.80
2024-01-21T10:12:02.195Z,53.90
2024-01-21T10:14:32.958Z,54.50
2024-01-21T10:17:01.515Z,55.20
2024-01-21T10:19:31.714Z,53.70
2024-01-21T10:22:10.738Z,52.80
2024-01-21T10:24:44.224Z,51.00
2024-01-21T10:27:14.093Z,49.70
2024-01-21T10:29:44.587Z,50.20
2024-01-21T10:32:14.076Z,50.80
2024-01-21T10:34:43.613Z,50.80
2024-01-21T10:37:15.754Z,49.70
2024-01-21T10:39:47.206Z,49.40
2024-01-21T10:42:16.251Z,51.10
2024-01-21T10:44:46.036Z,51.20
2024-01-21T10:47:15.262Z,48.80
2024-01-21T10:49:46.246Z,47.30
2024-01-21T10:52:17.455Z,48.00
2024-01-21T10:54:49.510Z,47.90
2024-01-21T10:57:19.208Z,49.30
2024-01-21T10:59:50.872Z,49.30
2024-01-21T11:02:21.549Z,48.40
2024-01-21T11:04:50.382Z,49.00
2024-01-21T11:07:20.662Z,48.60
2024-01-21T11:09:51.699Z,48.40
2024-01-21T11:12:20.089Z,47.50
2024-01-21T11:14:48.452Z,46.00
2024-01-21T11:17:19.116Z,46.10
2024-01-21T11:19:53.390Z,46.10
2024-01-21T11:22:25.060Z,46.40
2024-01-21T11:24:56.930Z,46.40
2024-01-21T11:27:27.307Z,44.50
2024-01-21T11:29:57.181Z,44.00
2024-01-21T11:32:28.414Z,44.30
2024-01-21T11:34:58.781Z,44.80
2024-01-21T11:37:27.203Z,44.70
2024-01-21T11:39:57.084Z,44.10
2024-01-21T11:42:25.507Z,45.60
2024-01-21T11:45:03.434Z,46.40
2024-01-21T11:47:31.896Z,47.30
2024-01-21T11:50:01.974Z,47.60
2024-01-21T11:52:30.652Z,47.50
2024-01-21T11:55:00.948Z,47.20
2024-01-21T11:57:30.008Z,45.60
2024-01-21T11:59:58.502Z,45.90
2024-01-21T12:02:27.087Z,46.00
2024-01-21T12:04:57.017Z,45.60
2024-01-21T12:07:26.764Z,45.70
2024-01-21T12:09:55.682Z,45.70
2024-01-21T12:12:25.841Z,44.90
2024-01-21T12:14:56.504Z,44.40
2024-01-21T12:17:25.473Z,44.90
2024-01-21T12:19:54.064Z,43.70
2024-01-21T12:22:38.340Z,43.00
2024-01-21T12:25:09.646Z,42.90
2024-01-21T12:27:43.271Z,43.40
2024-01-21T12:30:15.140Z,43.90
2024-01-21T12:32:53.015Z,44.10
2024-01-21T12:35:25.048Z,42.60
2024-01-21T12:37:54.201Z,43.30
2024-01-21T12:40:22.716Z,44.20
2024-01-21T12:42:52.686Z,45.50
2024-01-21T12:45:21.379Z,44.60
2024-01-21T12:47:50.237Z,45.40
2024-01-21T12:50:18.718Z,44.70
2024-01-21T12:52:47.048Z,43.30
2024-01-21T12:55:15.485Z,44.30
2024-01-21T12:57:44.218Z,44.00
2024-01-21T13:00:15.559Z,44.00
2024-01-21T13:02:45.193Z,42.60
2024-01-21T13:05:14.853Z,42.30
2024-01-21T13:07:43.346Z,41.90
2024-01-21T13:10:12.189Z,41.20
2024-01-21T13:12:40.482Z,42.50
2024-01-21T13:15:09.713Z,42.60
2024-01-21T13:17:39.544Z,42.70
2024-01-21T13:20:09.547Z,41.60
2024-01-21T13:22:37.811Z,41.70
2024-01-21T13:25:06.842Z,42.40
2024-01-21T13:27:41.702Z,41.30
2024-01-21T13:30:30.225Z,42.20
2024-01-21T13:32:59.949Z,42.60
2024-01-21T13:35:28.527Z,44.00
2024-01-21T13:37:56.905Z,44.70
2024-01-21T13:40:25.204Z,44.20
2024-01-21T13:42:55.965Z,44.10
2024-01-21T13:45:24.654Z,43.10
2024-01-21T13:47:53.149Z,43.90
2024-01-21T13:50:23.162Z,43.70
2024-01-21T13:52:51.814Z,44.20
2024-01-21T13:55:20.382Z,44.80
2024-01-21T13:57:48.833Z,44.80
2024-01-21T14:00:19.831Z,44.40
2024-01-21T14:02:48.313Z,44.70
2024-01-21T14:05:17.254Z,44.60
2024-01-21T14:07:46.987Z,43.80
2024-01-21T14:10:16.264Z,44.30
2024-01-21T14:12:45.972Z,45.00
2024-01-21T14:15:14.768Z,44.10
2024-01-21T14:17:43.506Z,43.80
2024-01-21T14:20:14.596Z,43.90
2024-01-21T14:22:44.426Z,44.80
2024-01-21T14:25:21.791Z,46.00
2024-01-21T14:27:50.380Z,47.20
2024-01-21T14:30:23.517Z,47.50
2024-01-21T14:32:51.986Z,45.30
2024-01-21T14:35:20.650Z,45.60
2024-01-21T14:37:49.118Z,44.90
2024-01-21T14:40:19.011Z,45.20
2024-01-21T14:42:47.446Z,46.00
2024-01-21T14:45:15.954Z,48.10
2024-01-21T14:47:44.832Z,49.90
2024-01-21T14:50:14.061Z,52.70
2024-01-21T14:52:42.662Z,52.00
2024-01-21T14:55:11.350Z,53.90
2024-01-21T14:57:44.734Z,56.80
2024-01-21T15:00:15.527Z,58.70
2024-01-21T15:02:44.217Z,59.00
2024-01-21T15:05:12.656Z,59.80
2024-01-21T15:07:45.087Z,60.40
2024-01-21T15:10:17.230Z,60.20
2024-01-21T15:12:47.045Z,60.50
2024-01-21T15:15:28.736Z,59.30
2024-01-21T15:17:57.314Z,59.40
2024-01-21T15:20:26.465Z,60.00
2024-01-21T15:22:54.881Z,60.60
2024-01-21T15:25:23.239Z,61.80
2024-01-21T15:27:53.546Z,62.90
2024-01-21T15:30:22.305Z,63.20
2024-01-21T15:32:51.034Z,63.90
2024-01-21T15:35:19.442Z,64.30
2024-01-21T15:37:47.848Z,63.40
2024-01-21T15:40:16.596Z,62.40
2024-01-21T15:42:45.217Z,61.90
2024-01-21T15:45:14.986Z,62.30
2024-01-21T15:47:43.838Z,61.60
2024-01-21T15:50:12.778Z,61.40
2024-01-21T15:52:41.608Z,60.90
2024-01-21T15:55:10.784Z,60.20
2024-01-21T15:57:39.300Z,59.20
2024-01-21T16:00:08.975Z,58.50
2024-01-21T16:02:38.874Z,58.00
2024-01-21T16:05:07.869Z,58.40
2024-01-21T16:07:36.244Z,58.60
2024-01-21T16:10:05.536Z,58.10
2024-01-21T16:12:34.305Z,57.40
2024-01-21T16:15:02.737Z,57.40
2024-01-21T16:17:31.192Z,57.20
2024-01-21T16:20:00.912Z,56.30
2024-01-21T16:22:29.363Z,54.80
2024-01-21T16:24:58.531Z,53.90
2024-01-21T16:27:33.179Z,53.60
2024-01-21T16:30:02.307Z,53.50
2024-01-21T16:32:31.302Z,53.80
2024-01-21T16:35:02.494Z,53.50
2024-01-21T16:37:31.529Z,52.90
2024-01-21T16:40:01.338Z,51.80
2024-01-21T16:42:32.675Z,51.40
2024-01-21T16:45:03.267Z,52.90
2024-01-21T16:47:31.945Z,52.90
2024-01-21T16:50:01.838Z,53.10
2024-01-21T16:52:34.425Z,52.10
2024-01-21T16:55:02.948Z,51.20
2024-01-21T16:57:31.838Z,50.20
2024-01-21T17:00:05.976Z,50.20
2024-01-21T17:02:34.859Z,49.80
2024-01-21T17:05:04.784Z,49.80
2024-01-21T17:07:33.384Z,50.20
2024-01-21T17:10:04.966Z,49.90
2024-01-21T17:12:37.796Z,49.80
2024-01-21T17:15:07.966Z,50.10
2024-01-21T17:17:36.847Z,50.10
2024-01-21T17:20:11.838Z,50.00
2024-01-21T17:22:40.622Z,50.00
2024-01-21T17:25:10.544Z,50.20
2024-01-21T17:27:39.102Z,50.40
2024-01-21T17:30:09.036Z,51.00
2024-01-21T17:32:40.738Z,51.10
2024-01-21T17:35:10.885Z,50.30
2024-01-21T17:37:39.187Z,50.30
2024-01-21T17:40:10.573Z,50.30
2024-01-21T17:42:39.240Z,49.40
2024-01-21T17:45:09.384Z,49.10
2024-01-21T17:47:38.679Z,49.80
2024-01-21T17:50:08.443Z,48.20
2024-01-21T17:52:38.399Z,47.60
2024-01-21T17:55:07.869Z,47.70
2024-01-21T17:57:38.031Z,47.30
2024-01-21T18:00:08.073Z,47.40
2024-01-21T18:02:37.164Z,46.10
2024-01-21T18:05:07.267Z,46.00
2024-01-21T18:07:37.269Z,45.90
2024-01-21T18:10:06.823Z,44.50
2024-01-21T18:12:36.616Z,44.50
2024-01-21T18:15:07.041Z,44.60
2024-01-21T18:17:35.706Z,45.30
2024-01-21T18:20:04.284Z,44.50
2024-01-21T18:22:33.138Z,44.70
2024-01-21T18:25:04.556Z,44.50
2024-01-21T18:27:33.234Z,44.60
2024-01-21T18:30:01.921Z,43.90
2024-01-21T18:32:30.702Z,43.90
2024-01-21T18:34:59.271Z,43.50
2024-01-21T18:37:27.933Z,43.10
2024-01-21T18:39:57.281Z,41.60
2024-01-21T18:42:27.307Z,41.40
2024-01-21T18:44:55.981Z,40.60
2024-01-21T18:47:25.441Z,39.50
2024-01-21T18:49:54.267Z,39.60
2024-01-21T18:52:22.604Z,40.40
2024-01-21T18:54:52.244Z,42.00
2024-01-21T18:57:21.730Z,42.30
2024-01-21T18:59:52.075Z,42.50
2024-01-21T19:02:21.021Z,43.20
2024-01-21T19:04:50.450Z,43.10
2024-01-21T19:07:20.920Z,42.30
2024-01-21T19:09:50.727Z,42.50
2024-01-21T19:12:21.155Z,43.70
2024-01-21T19:14:51.455Z,44.10
2024-01-21T19:17:20.348Z,44.20
2024-01-21T19:19:49.023Z,45.90
2024-01-21T19:22:17.658Z,46.70
2024-01-21T19:24:47.831Z,47.50
2024-01-21T19:27:16.641Z,47.00
2024-01-21T19:29:45.540Z,47.40
2024-01-21T19:32:16.088Z,47.30
2024-01-21T19:34:46.347Z,47.40
2024-01-21T19:37:15.013Z,47.60
2024-01-21T19:39:44.036Z,47.10
2024-01-21T19:42:14.454Z,46.70
2024-01-21T19:44:42.001Z,46.80
2024-01-21T19:47:10.438Z,47.20
2024-01-21T19:49:40.823Z,46.70
2024-01-21T19:52:09.539Z,46.70
2024-01-21T19:54:38.373Z,47.10
2024-01-21T19:57:07.877Z,48.00
2024-01-21T19:59:38.197Z,48.00
2024-01-21T20:02:06.949Z,48.30
2024-01-21T20:04:35.602Z,48.60
2024-01-21T20:07:05.741Z,48.80
2024-01-21T20:09:34.229Z,48.10
2024-01-21T20:12:02.699Z,48.60
2024-01-21T20:14:31.149Z,48.70
2024-01-21T20:16:59.512Z,49.10
2024-01-21T20:19:28.147Z,49.10
2024-01-21T20:21:56.907Z,48.40
2024-01-21T20:24:27.462Z,48.20
2024-01-21T20:26:56.940Z,48.20
2024-01-21T20:29:26.194Z,48.10
2024-01-21T20:31:54.573Z,48.20
2024-01-21T20:34:23.075Z,48.20
2024-01-21T20:36:51.647Z,48.10
2024-01-21T20:39:20.573Z,48.30
2024-01-21T20:41:50.547Z,48.80
2024-01-21T20:44:19.510Z,49.00
2024-01-21T20:46:47.819Z,48.80
2024-01-21T20:49:16.211Z,48.50
2024-01-21T20:51:44.975Z,48.10
2024-01-21T20:54:13.639Z,47.70
2024-01-21T20:56:42.028Z,48.40
2024-01-21T20:59:11.838Z,48.70
2024-01-21T21:01:40.228Z,48.60
2024-01-21T21:04:08.616Z,48.90
2024-01-21T21:06:37.307Z,48.90
2024-01-21T21:09:06.116Z,48.90
2024-01-21T21:11:34.559Z,48.90
2024-01-21T21:14:02.946Z,48.80
2024-01-21T21:16:32.857Z,48.90
2024-01-21T21:19:02.592Z,49.30
2024-01-21T21:21:31.242Z,49.50
2024-01-21T21:24:00.271Z,49.50
2024-01-21T21:26:31.089Z,48.80
2024-01-21T21:28:59.488Z,48.30
2024-01-21T21:31:28.035Z,48.90
2024-01-21T21:33:58.347Z,49.30
2024-01-21T21:36:27.495Z,49.50
2024-01-21T21:38:56.083Z,49.90
2024-01-21T21:41:24.707Z,49.70
2024-01-21T21:43:53.051Z,49.80
2024-01-21T21:46:21.399Z,49.90
2024-01-21T21:48:50.321Z,49.30
2024-01-21T21:51:22.035Z,48.70
2024-01-21T21:53:50.628Z,49.00
2024-01-21T21:56:19.742Z,49.10
2024-01-21T21:58:48.829Z,49.70
2024-01-21T22:01:20.317Z,49.90
2024-01-21T22:03:49.025Z,49.70
2024-01-21T22:06:19.453Z,49.50
2024-01-21T22:08:49.372Z,49.50
2024-01-21T22:11:20.149Z,49.70
2024-01-21T22:13:48.516Z,49.70
2024-01-21T22:16:17.700Z,49.80
2024-01-21T22:18:46.727Z,49.60
2024-01-21T22:21:18.737Z,49.10
2024-01-21T22:23:49.092Z,49.30
2024-01-21T22:26:18.061Z,49.30
2024-01-21T22:28:46.827Z,49.70
2024-01-21T22:31:15.971Z,49.50
2024-01-21T22:33:45.039Z,48.60
2024-01-21T22:36:13.439Z,49.10
2024-01-21T22:38:41.835Z,49.10
2024-01-21T22:41:11.798Z,49.20
2024-01-21T22:43:40.413Z,48.60
2024-01-21T22:46:08.759Z,48.70
2024-01-21T22:48:37.706Z,49.30
2024-01-21T22:51:06.407Z,49.10
2024-01-21T22:53:34.839Z,49.10
2024-01-21T22:56:03.873Z,49.30
2024-01-21T22:58:33.893Z,49.20
2024-01-21T23:01:02.276Z,49.50
2024-01-21T23:03:31.057Z,49.80
2024-01-21T23:05:59.878Z,49.80
2024-01-21T23:08:28.686Z,49.90
2024-01-21T23:10:59.319Z,49.50
2024-01-21T23:13:28.124Z,49.50
2024-01-21T23:15:58.268Z,50.00
2024-01-21T23:18:26.688Z,50.60
2024-01-21T23:20:55.340Z,51.40
2024-01-21T23:23:23.922Z,50.90
2024-01-21T23:25:54.363Z,50.40
2024-01-21T23:28:22.725Z,50.50
2024-01-21T23:30:53.125Z,50.50
2024-01-21T23:33:23.870Z,50.80
2024-01-21T23:35:52.355Z,50.80
2024-01-21T23:38:20.675Z,50.70
2024-01-21T23:40:48.992Z,50.70
2024-01-21T23:43:18.020Z,50.20
2024-01-21T23:45:46.418Z,50.60
2024-01-21T23:48:16.858Z,50.50
2024-01-21T23:50:47.203Z,50.40
2024-01-21T23:53:15.899Z,50.40
2024-01-21T23:55:44.473Z,51.10
2024-01-21T23:58:14.142Z,51.50
